Página principal
METAR-TAF:

METAR-TAF

Aeroportos :

Galena, Alasca, Estados Unidos

latitude: 64-44N, longitude: 156-56W, altura: 46 m

Observação actual do tempo

O boletim foi feito há 56 minutos, às 08:56 UTC
Vento calmo
Temperatura 13°C
Humidade 62%
Pressão 1023 hPa
Visibilidade: 16.1 km
Céu limpo

METAR: PAGA 150856Z AUTO 00000KT 10SM CLR 13/06 A3022 RMK AO2 SLP235 T01280061 53010 TSNO $

Hora: 01:52 (09:52 UTC)

Previsão

O boletim foi feito há 4 horas e 32 minutos, às 05:20 UTC
Previsão válida de 15 às 06 UTC a 16 às 06 UTC
Vento 6 kt de oeste
Visibilidade: 10 km
Nuvens dispersasa uma altura de 4000 ft

TAF: PAGA 150520Z 1506/1606 28006KT P6SM SCT040

Observações e previsões do tempo de mais de 4000 aeroportos (mensagens METAR e TAF).

As estações disponíveis são os pontos amarelos e vermelhos sobre o mapa.

Mova o rato sobre o mapa para ver o nome da estação.

Depois clique no ponto para visualizar as observações e previsões meteorológicas.

Para alterar o mapa : clique nos botões verdes com uma cruz preta para aumentar o zoom; no botão verde com uma pitada de zoom; ou nas setas verdes para mapas adjacentes.


METAR-TAF: